sensor_id;sensor_type;location;lat;lon;timestamp;pressure;altitude;pressure_sealevel;temperature;humidity
8717;BME280;4395;48.554;8.820;2023-02-19T00:00:42;96430.66;;;10.53;100.00
8717;BME280;4395;48.554;8.820;2023-02-19T00:02:46;96444.25;;;10.35;100.00
8717;BME280;4395;48.554;8.820;2023-02-19T00:04:49;96435.97;;;10.25;100.00
8717;BME280;4395;48.554;8.820;2023-02-19T00:06:52;96435.13;;;10.36;100.00
8717;BME280;4395;48.554;8.820;2023-02-19T00:08:55;96420.63;;;10.37;100.00
8717;BME280;4395;48.554;8.820;2023-02-19T00:11:03;96427.81;;;10.08;100.00
8717;BME280;4395;48.554;8.820;2023-02-19T00:13:06;96429.31;;;10.16;100.00
8717;BME280;4395;48.554;8.820;2023-02-19T00:15:09;96421.81;;;10.18;100.00
8717;BME280;4395;48.554;8.820;2023-02-19T00:17:12;96428.75;;;10.02;100.00
8717;BME280;4395;48.554;8.820;2023-02-19T00:19:16;96373.69;;;9.64;100.00
8717;BME280;4395;48.554;8.820;2023-02-19T00:21:19;96425.13;;;9.96;100.00
8717;BME280;4395;48.554;8.820;2023-02-19T00:23:22;96364.34;;;9.67;100.00
8717;BME280;4395;48.554;8.820;2023-02-19T00:25:25;96406.66;;;10.12;100.00
8717;BME280;4395;48.554;8.820;2023-02-19T00:27:29;96420.09;;;10.23;100.00
8717;BME280;4395;48.554;8.820;2023-02-19T00:29:32;96415.78;;;10.11;100.00
8717;BME280;4395;48.554;8.820;2023-02-19T00:31:35;96410.06;;;9.95;100.00
8717;BME280;4395;48.554;8.820;2023-02-19T00:33:38;96392.72;;;9.63;100.00
8717;BME280;4395;48.554;8.820;2023-02-19T00:35:40;96413.13;;;9.76;100.00
8717;BME280;4395;48.554;8.820;2023-02-19T00:37:43;96370.66;;;9.73;100.00
8717;BME280;4395;48.554;8.820;2023-02-19T00:39:46;96335.56;;;9.39;100.00
8717;BME280;4395;48.554;8.820;2023-02-19T00:41:49;96404.22;;;10.10;100.00
8717;BME280;4395;48.554;8.820;2023-02-19T00:43:55;96401.97;;;10.30;100.00
8717;BME280;4395;48.554;8.820;2023-02-19T00:45:58;96403.19;;;9.99;100.00
8717;BME280;4395;48.554;8.820;2023-02-19T00:48:01;96415.00;;;9.87;100.00
8717;BME280;4395;48.554;8.820;2023-02-19T00:50:04;96410.09;;;9.84;100.00
8717;BME280;4395;48.554;8.820;2023-02-19T00:52:07;96416.97;;;9.91;100.00
8717;BME280;4395;48.554;8.820;2023-02-19T00:54:10;96406.56;;;10.07;100.00
8717;BME280;4395;48.554;8.820;2023-02-19T00:56:14;96417.69;;;9.75;100.00
8717;BME280;4395;48.554;8.820;2023-02-19T00:58:16;96414.75;;;9.88;100.00
8717;BME280;4395;48.554;8.820;2023-02-19T01:00:20;96414.53;;;9.90;100.00
8717;BME280;4395;48.554;8.820;2023-02-19T01:02:23;96416.63;;;9.64;100.00
8717;BME280;4395;48.554;8.820;2023-02-19T01:04:27;96392.94;;;9.15;100.00
8717;BME280;4395;48.554;8.820;2023-02-19T01:06:30;96414.66;;;9.83;100.00
8717;BME280;4395;48.554;8.820;2023-02-19T01:08:33;96415.09;;;10.04;100.00
8717;BME280;4395;48.554;8.820;2023-02-19T01:10:36;96398.03;;;10.10;100.00
8717;BME280;4395;48.554;8.820;2023-02-19T01:12:39;96412.28;;;10.10;100.00
8717;BME280;4395;48.554;8.820;2023-02-19T01:14:42;96375.53;;;9.87;100.00
8717;BME280;4395;48.554;8.820;2023-02-19T01:16:46;96401.88;;;10.02;100.00
8717;BME280;4395;48.554;8.820;2023-02-19T01:18:49;96395.50;;;9.91;100.00
8717;BME280;4395;48.554;8.820;2023-02-19T01:20:52;96386.16;;;9.94;100.00
8717;BME280;4395;48.554;8.820;2023-02-19T01:22:55;96391.16;;;9.90;100.00
8717;BME280;4395;48.554;8.820;2023-02-19T01:24:58;96399.94;;;9.74;100.00
8717;BME280;4395;48.554;8.820;2023-02-19T01:27:01;96393.88;;;9.79;100.00
8717;BME280;4395;48.554;8.820;2023-02-19T01:29:03;96408.13;;;9.56;100.00
8717;BME280;4395;48.554;8.820;2023-02-19T01:31:10;96404.25;;;9.40;100.00
8717;BME280;4395;48.554;8.820;2023-02-19T01:33:15;96403.47;;;9.51;100.00
8717;BME280;4395;48.554;8.820;2023-02-19T01:35:18;96405.56;;;9.61;100.00
8717;BME280;4395;48.554;8.820;2023-02-19T01:37:21;96392.72;;;9.40;100.00
8717;BME280;4395;48.554;8.820;2023-02-19T01:39:24;96385.03;;;9.31;100.00
8717;BME280;4395;48.554;8.820;2023-02-19T01:41:27;96349.56;;;9.29;100.00
8717;BME280;4395;48.554;8.820;2023-02-19T01:43:31;96376.03;;;9.73;100.00
8717;BME280;4395;48.554;8.820;2023-02-19T01:45:36;96380.94;;;9.41;100.00
8717;BME280;4395;48.554;8.820;2023-02-19T01:47:40;96379.19;;;9.58;100.00
8717;BME280;4395;48.554;8.820;2023-02-19T01:49:46;96361.78;;;9.02;100.00
8717;BME280;4395;48.554;8.820;2023-02-19T01:51:53;96378.47;;;9.16;100.00
8717;BME280;4395;48.554;8.820;2023-02-19T01:54:00;96344.78;;;9.31;100.00
8717;BME280;4395;48.554;8.820;2023-02-19T01:56:05;96376.03;;;9.26;100.00
8717;BME280;4395;48.554;8.820;2023-02-19T01:58:09;96377.06;;;9.01;100.00
8717;BME280;4395;48.554;8.820;2023-02-19T02:00:15;96372.06;;;9.17;100.00
8717;BME280;4395;48.554;8.820;2023-02-19T02:02:18;96374.50;;;9.18;100.00
8717;BME280;4395;48.554;8.820;2023-02-19T02:04:21;96374.19;;;9.38;100.00
8717;BME280;4395;48.554;8.820;2023-02-19T02:06:28;96369.16;;;9.30;100.00
8717;BME280;4395;48.554;8.820;2023-02-19T02:08:33;96361.69;;;9.09;100.00
8717;BME280;4395;48.554;8.820;2023-02-19T02:10:55;96355.72;;;9.07;100.00
8717;BME280;4395;48.554;8.820;2023-02-19T02:12:58;96369.63;;;9.27;100.00
8717;BME280;4395;48.554;8.820;2023-02-19T02:15:01;96375.81;;;9.27;100.00
8717;BME280;4395;48.554;8.820;2023-02-19T02:17:11;96380.81;;;9.12;100.00
8717;BME280;4395;48.554;8.820;2023-02-19T02:19:29;96374.03;;;8.98;100.00
8717;BME280;4395;48.554;8.820;2023-02-19T02:21:48;96396.06;;;9.00;100.00
8717;BME280;4395;48.554;8.820;2023-02-19T02:24:09;96382.44;;;9.13;100.00
8717;BME280;4395;48.554;8.820;2023-02-19T02:26:24;96381.53;;;9.43;100.00
8717;BME280;4395;48.554;8.820;2023-02-19T02:28:49;96307.13;;;8.91;100.00
8717;BME280;4395;48.554;8.820;2023-02-19T02:30:58;96364.13;;;9.10;100.00
8717;BME280;4395;48.554;8.820;2023-02-19T02:33:13;96361.47;;;9.33;100.00
8717;BME280;4395;48.554;8.820;2023-02-19T02:35:19;96369.28;;;9.23;100.00
8717;BME280;4395;48.554;8.820;2023-02-19T02:37:27;96365.78;;;9.34;100.00
8717;BME280;4395;48.554;8.820;2023-02-19T02:39:32;96335.34;;;9.41;100.00
8717;BME280;4395;48.554;8.820;2023-02-19T02:41:40;96352.34;;;9.58;100.00
8717;BME280;4395;48.554;8.820;2023-02-19T02:43:44;96354.00;;;9.47;100.00
8717;BME280;4395;48.554;8.820;2023-02-19T02:45:49;96359.13;;;9.49;100.00
8717;BME280;4395;48.554;8.820;2023-02-19T02:48:13;96350.25;;;9.60;100.00
8717;BME280;4395;48.554;8.820;2023-02-19T02:50:21;96348.72;;;9.64;100.00
8717;BME280;4395;48.554;8.820;2023-02-19T02:52:26;96349.09;;;9.56;100.00
8717;BME280;4395;48.554;8.820;2023-02-19T02:54:43;96334.53;;;9.40;100.00
8717;BME280;4395;48.554;8.820;2023-02-19T02:57:06;96337.66;;;9.49;100.00
8717;BME280;4395;48.554;8.820;2023-02-19T02:59:19;96327.06;;;9.19;100.00
8717;BME280;4395;48.554;8.820;2023-02-19T03:01:26;96327.63;;;8.97;100.00
8717;BME280;4395;48.554;8.820;2023-02-19T03:03:54;96311.44;;;9.04;100.00
8717;BME280;4395;48.554;8.820;2023-02-19T03:06:03;96314.47;;;8.96;100.00
8717;BME280;4395;48.554;8.820;2023-02-19T03:08:09;96318.09;;;9.13;100.00
8717;BME280;4395;48.554;8.820;2023-02-19T03:10:19;96304.78;;;9.07;100.00
8717;BME280;4395;48.554;8.820;2023-02-19T03:12:26;96281.13;;;8.92;100.00
8717;BME280;4395;48.554;8.820;2023-02-19T03:14:51;96325.88;;;8.91;100.00
8717;BME280;4395;48.554;8.820;2023-02-19T03:17:18;96330.28;;;8.86;100.00
8717;BME280;4395;48.554;8.820;2023-02-19T03:19:48;96311.31;;;8.99;100.00
8717;BME280;4395;48.554;8.820;2023-02-19T03:21:55;96283.56;;;9.05;100.00
8717;BME280;4395;48.554;8.820;2023-02-19T03:24:00;96292.56;;;8.99;100.00
8717;BME280;4395;48.554;8.820;2023-02-19T03:26:25;96319.72;;;9.38;100.00
8717;BME280;4395;48.554;8.820;2023-02-19T03:28:31;96319.47;;;9.51;100.00
8717;BME280;4395;48.554;8.820;2023-02-19T03:30:53;96326.00;;;9.55;100.00
8717;BME280;4395;48.554;8.820;2023-02-19T03:32:59;96331.81;;;9.52;100.00
8717;BME280;4395;48.554;8.820;2023-02-19T03:35:12;96328.69;;;9.31;100.00
8717;BME280;4395;48.554;8.820;2023-02-19T03:37:20;96325.78;;;9.33;100.00
8717;BME280;4395;48.554;8.820;2023-02-19T03:39:26;96299.31;;;8.90;100.00
8717;BME280;4395;48.554;8.820;2023-02-19T03:41:33;96312.03;;;9.06;100.00
8717;BME280;4395;48.554;8.820;2023-02-19T03:43:40;96315.13;;;8.68;100.00
8717;BME280;4395;48.554;8.820;2023-02-19T03:45:50;96344.81;;;8.66;100.00
8717;BME280;4395;48.554;8.820;2023-02-19T03:48:03;96335.97;;;8.66;100.00
8717;BME280;4395;48.554;8.820;2023-02-19T03:50:14;96328.16;;;8.64;100.00
8717;BME280;4395;48.554;8.820;2023-02-19T03:52:23;96296.13;;;8.69;100.00
8717;BME280;4395;48.554;8.820;2023-02-19T03:54:33;96332.63;;;8.94;100.00
8717;BME280;4395;48.554;8.820;2023-02-19T03:56:44;96327.34;;;8.64;100.00
8717;BME280;4395;48.554;8.820;2023-02-19T03:58:55;96329.88;;;8.59;100.00
8717;BME280;4395;48.554;8.820;2023-02-19T04:01:03;96334.16;;;8.90;100.00
8717;BME280;4395;48.554;8.820;2023-02-19T04:03:11;96324.81;;;8.81;100.00
8717;BME280;4395;48.554;8.820;2023-02-19T04:05:18;96322.00;;;8.76;100.00
8717;BME280;4395;48.554;8.820;2023-02-19T04:07:24;96324.13;;;8.97;100.00
8717;BME280;4395;48.554;8.820;2023-02-19T04:09:34;96330.66;;;9.01;100.00
8717;BME280;4395;48.554;8.820;2023-02-19T04:11:43;96323.31;;;8.96;100.00
8717;BME280;4395;48.554;8.820;2023-02-19T04:13:48;96329.75;;;8.54;100.00
8717;BME280;4395;48.554;8.820;2023-02-19T04:15:54;96326.66;;;8.68;100.00
8717;BME280;4395;48.554;8.820;2023-02-19T04:18:03;96334.19;;;8.60;100.00
8717;BME280;4395;48.554;8.820;2023-02-19T04:20:09;96351.03;;;8.37;100.00
8717;BME280;4395;48.554;8.820;2023-02-19T04:22:15;96331.22;;;8.38;100.00
8717;BME280;4395;48.554;8.820;2023-02-19T04:24:21;96295.44;;;8.32;100.00
8717;BME280;4395;48.554;8.820;2023-02-19T04:26:24;96336.53;;;8.56;100.00
8717;BME280;4395;48.554;8.820;2023-02-19T04:28:27;96343.75;;;8.56;100.00
8717;BME280;4395;48.554;8.820;2023-02-19T04:30:30;96350.06;;;8.61;100.00
8717;BME280;4395;48.554;8.820;2023-02-19T04:32:33;96340.91;;;8.39;100.00
8717;BME280;4395;48.554;8.820;2023-02-19T04:34:36;96359.91;;;8.49;100.00
8717;BME280;4395;48.554;8.820;2023-02-19T04:36:39;96346.31;;;8.32;100.00
8717;BME280;4395;48.554;8.820;2023-02-19T04:38:43;96352.72;;;8.31;100.00
8717;BME280;4395;48.554;8.820;2023-02-19T04:40:46;96350.25;;;8.30;100.00
8717;BME280;4395;48.554;8.820;2023-02-19T04:42:49;96349.88;;;7.96;100.00
8717;BME280;4395;48.554;8.820;2023-02-19T04:44:52;96356.16;;;8.20;100.00
8717;BME280;4395;48.554;8.820;2023-02-19T04:46:55;96360.56;;;8.33;100.00
8717;BME280;4395;48.554;8.820;2023-02-19T04:48:57;96250.47;;;7.45;100.00
8717;BME280;4395;48.554;8.820;2023-02-19T04:51:04;96358.28;;;8.00;100.00
8717;BME280;4395;48.554;8.820;2023-02-19T04:53:07;96349.88;;;7.96;100.00
8717;BME280;4395;48.554;8.820;2023-02-19T04:55:11;96345.72;;;7.82;100.00
8717;BME280;4395;48.554;8.820;2023-02-19T04:57:14;96369.34;;;7.85;100.00
8717;BME280;4395;48.554;8.820;2023-02-19T04:59:17;96358.13;;;7.95;100.00
8717;BME280;4395;48.554;8.820;2023-02-19T05:01:20;96358.94;;;7.95;100.00
8717;BME280;4395;48.554;8.820;2023-02-19T05:03:22;96364.75;;;7.92;100.00
8717;BME280;4395;48.554;8.820;2023-02-19T05:05:25;96355.97;;;7.85;100.00
8717;BME280;4395;48.554;8.820;2023-02-19T05:07:28;96348.53;;;7.87;100.00
8717;BME280;4395;48.554;8.820;2023-02-19T05:09:31;96357.16;;;7.89;100.00
8717;BME280;4395;48.554;8.820;2023-02-19T05:11:35;96362.28;;;7.91;100.00
8717;BME280;4395;48.554;8.820;2023-02-19T05:13:38;96324.16;;;7.59;100.00
8717;BME280;4395;48.554;8.820;2023-02-19T05:15:41;96319.41;;;7.61;100.00
8717;BME280;4395;48.554;8.820;2023-02-19T05:17:44;96368.38;;;7.80;100.00
8717;BME280;4395;48.554;8.820;2023-02-19T05:19:47;96381.38;;;7.76;100.00
8717;BME280;4395;48.554;8.820;2023-02-19T05:21:49;96371.88;;;7.80;100.00
8717;BME280;4395;48.554;8.820;2023-02-19T05:23:52;96361.94;;;7.87;100.00
8717;BME280;4395;48.554;8.820;2023-02-19T05:25:55;96363.47;;;7.95;100.00
8717;BME280;4395;48.554;8.820;2023-02-19T05:27:59;96381.25;;;7.89;100.00
8717;BME280;4395;48.554;8.820;2023-02-19T05:30:16;96391.69;;;7.72;100.00
8717;BME280;4395;48.554;8.820;2023-02-19T05:32:19;96380.19;;;7.72;100.00
8717;BME280;4395;48.554;8.820;2023-02-19T05:34:21;96373.94;;;7.78;100.00
8717;BME280;4395;48.554;8.820;2023-02-19T05:36:24;96398.19;;;7.83;100.00
8717;BME280;4395;48.554;8.820;2023-02-19T05:38:27;96387.88;;;7.87;100.00
8717;BME280;4395;48.554;8.820;2023-02-19T05:40:30;96387.06;;;7.86;100.00
8717;BME280;4395;48.554;8.820;2023-02-19T05:42:33;96360.56;;;7.60;100.00
8717;BME280;4395;48.554;8.820;2023-02-19T05:44:37;96390.88;;;7.72;100.00
8717;BME280;4395;48.554;8.820;2023-02-19T05:46:40;96388.94;;;7.79;100.00
8717;BME280;4395;48.554;8.820;2023-02-19T05:48:43;96379.38;;;7.71;100.00
8717;BME280;4395;48.554;8.820;2023-02-19T05:50:45;96387.50;;;7.83;100.00
8717;BME280;4395;48.554;8.820;2023-02-19T05:52:48;96382.63;;;7.73;100.00
8717;BME280;4395;48.554;8.820;2023-02-19T05:54:51;96401.91;;;7.82;100.00
8717;BME280;4395;48.554;8.820;2023-02-19T05:56:54;96390.78;;;7.85;100.00
8717;BME280;4395;48.554;8.820;2023-02-19T05:58:57;96343.38;;;7.49;100.00
8717;BME280;4395;48.554;8.820;2023-02-19T06:01:01;96398.56;;;7.87;100.00
8717;BME280;4395;48.554;8.820;2023-02-19T06:03:04;96406.03;;;7.78;100.00
8717;BME280;4395;48.554;8.820;2023-02-19T06:05:08;96391.59;;;7.86;100.00
8717;BME280;4395;48.554;8.820;2023-02-19T06:07:10;96326.22;;;7.38;100.00
8717;BME280;4395;48.554;8.820;2023-02-19T06:09:13;96398.78;;;7.85;100.00
8717;BME280;4395;48.554;8.820;2023-02-19T06:11:16;96400.72;;;7.96;100.00
8717;BME280;4395;48.554;8.820;2023-02-19T06:13:19;96408.31;;;7.81;100.00
8717;BME280;4395;48.554;8.820;2023-02-19T06:15:22;96403.38;;;7.78;100.00
8717;BME280;4395;48.554;8.820;2023-02-19T06:17:26;96410.25;;;7.92;100.00
8717;BME280;4395;48.554;8.820;2023-02-19T06:19:29;96415.75;;;7.97;100.00
8717;BME280;4395;48.554;8.820;2023-02-19T06:21:32;96432.41;;;7.99;100.00
8717;BME280;4395;48.554;8.820;2023-02-19T06:23:35;96406.00;;;7.85;100.00
8717;BME280;4395;48.554;8.820;2023-02-19T06:25:38;96382.25;;;7.70;100.00
8717;BME280;4395;48.554;8.820;2023-02-19T06:27:41;96426.38;;;8.04;100.00
8717;BME280;4395;48.554;8.820;2023-02-19T06:29:44;96445.13;;;8.04;100.00
8717;BME280;4395;48.554;8.820;2023-02-19T06:31:47;96451.88;;;8.06;100.00
8717;BME280;4395;48.554;8.820;2023-02-19T06:33:51;96458.88;;;7.89;100.00
8717;BME280;4395;48.554;8.820;2023-02-19T06:35:57;96465.53;;;7.80;100.00
8717;BME280;4395;48.554;8.820;2023-02-19T06:38:00;96461.00;;;7.56;100.00
8717;BME280;4395;48.554;8.820;2023-02-19T06:40:04;96466.41;;;7.49;100.00
8717;BME280;4395;48.554;8.820;2023-02-19T06:42:07;96477.66;;;7.58;100.00
8717;BME280;4395;48.554;8.820;2023-02-19T06:44:10;96478.09;;;7.55;100.00
8717;BME280;4395;48.554;8.820;2023-02-19T06:46:13;96465.69;;;7.60;100.00
8717;BME280;4395;48.554;8.820;2023-02-19T06:48:15;96458.88;;;7.64;100.00
8717;BME280;4395;48.554;8.820;2023-02-19T06:50:20;96480.22;;;7.71;100.00
8717;BME280;4395;48.554;8.820;2023-02-19T06:52:22;96491.19;;;7.88;100.00
8717;BME280;4395;48.554;8.820;2023-02-19T06:54:25;96490.84;;;7.78;100.00
8717;BME280;4395;48.554;8.820;2023-02-19T06:56:29;96502.22;;;7.73;100.00
8717;BME280;4395;48.554;8.820;2023-02-19T06:58:33;96501.16;;;7.81;100.00
8717;BME280;4395;48.554;8.820;2023-02-19T07:00:36;96501.75;;;7.83;100.00
8717;BME280;4395;48.554;8.820;2023-02-19T07:02:39;96500.22;;;7.93;100.00
8717;BME280;4395;48.554;8.820;2023-02-19T07:04:41;96514.91;;;7.84;100.00
8717;BME280;4395;48.554;8.820;2023-02-19T07:06:46;96500.34;;;7.73;100.00
8717;BME280;4395;48.554;8.820;2023-02-19T07:08:49;96512.47;;;7.76;100.00
8717;BME280;4395;48.554;8.820;2023-02-19T07:10:56;96518.50;;;7.96;100.00
8717;BME280;4395;48.554;8.820;2023-02-19T07:12:59;96524.44;;;7.98;100.00
8717;BME280;4395;48.554;8.820;2023-02-19T07:15:02;96535.41;;;8.15;100.00
8717;BME280;4395;48.554;8.820;2023-02-19T07:17:05;96519.22;;;7.85;100.00
8717;BME280;4395;48.554;8.820;2023-02-19T07:19:09;96507.84;;;7.65;100.00
8717;BME280;4395;48.554;8.820;2023-02-19T07:21:14;96545.19;;;7.78;100.00
8717;BME280;4395;48.554;8.820;2023-02-19T07:23:18;96504.22;;;7.78;100.00
8717;BME280;4395;48.554;8.820;2023-02-19T07:25:21;96552.84;;;7.99;100.00
8717;BME280;4395;48.554;8.820;2023-02-19T07:27:24;96552.22;;;8.22;100.00
8717;BME280;4395;48.554;8.820;2023-02-19T07:29:27;96498.81;;;8.09;100.00
8717;BME280;4395;48.554;8.820;2023-02-19T07:31:29;96546.91;;;7.97;100.00
8717;BME280;4395;48.554;8.820;2023-02-19T07:33:32;96547.16;;;8.14;100.00
8717;BME280;4395;48.554;8.820;2023-02-19T07:35:35;96528.13;;;8.22;100.00
8717;BME280;4395;48.554;8.820;2023-02-19T07:37:39;96492.47;;;8.03;100.00
8717;BME280;4395;48.554;8.820;2023-02-19T07:39:44;96552.88;;;8.61;100.00
8717;BME280;4395;48.554;8.820;2023-02-19T07:41:47;96562.31;;;8.45;100.00
8717;BME280;4395;48.554;8.820;2023-02-19T07:43:59;96560.38;;;8.34;100.00
8717;BME280;4395;48.554;8.820;2023-02-19T07:46:02;96550.78;;;8.01;100.00
8717;BME280;4395;48.554;8.820;2023-02-19T07:48:05;96555.84;;;8.10;100.00
8717;BME280;4395;48.554;8.820;2023-02-19T07:50:08;96556.47;;;8.30;100.00
8717;BME280;4395;48.554;8.820;2023-02-19T07:52:14;96566.63;;;8.46;100.00
8717;BME280;4395;48.554;8.820;2023-02-19T07:54:18;96570.19;;;8.40;100.00
8717;BME280;4395;48.554;8.820;2023-02-19T07:56:22;96575.56;;;8.40;100.00
8717;BME280;4395;48.554;8.820;2023-02-19T07:58:25;96551.81;;;8.00;100.00
8717;BME280;4395;48.554;8.820;2023-02-19T08:00:28;96589.44;;;8.05;100.00
8717;BME280;4395;48.554;8.820;2023-02-19T08:02:31;96595.94;;;8.41;100.00
8717;BME280;4395;48.554;8.820;2023-02-19T08:04:51;96597.28;;;8.50;100.00
8717;BME280;4395;48.554;8.820;2023-02-19T08:06:54;96587.84;;;8.48;100.00
8717;BME280;4395;48.554;8.820;2023-02-19T08:08:56;96607.69;;;8.40;100.00
8717;BME280;4395;48.554;8.820;2023-02-19T08:11:00;96563.78;;;7.98;100.00
8717;BME280;4395;48.554;8.820;2023-02-19T08:13:21;96613.00;;;8.22;100.00
8717;BME280;4395;48.554;8.820;2023-02-19T08:15:25;96595.25;;;8.02;100.00
8717;BME280;4395;48.554;8.820;2023-02-19T08:17:28;96612.50;;;8.06;100.00
8717;BME280;4395;48.554;8.820;2023-02-19T08:19:31;96605.56;;;8.24;100.00
8717;BME280;4395;48.554;8.820;2023-02-19T08:21:34;96603.06;;;8.04;100.00
8717;BME280;4395;48.554;8.820;2023-02-19T08:23:37;96596.97;;;8.40;100.00
8717;BME280;4395;48.554;8.820;2023-02-19T08:25:41;96607.13;;;8.31;100.00
8717;BME280;4395;48.554;8.820;2023-02-19T08:27:44;96598.09;;;8.07;100.00
8717;BME280;4395;48.554;8.820;2023-02-19T08:29:48;96613.72;;;8.11;100.00
8717;BME280;4395;48.554;8.820;2023-02-19T08:31:51;96596.13;;;7.96;100.00
8717;BME280;4395;48.554;8.820;2023-02-19T08:33:54;96608.91;;;7.94;100.00
8717;BME280;4395;48.554;8.820;2023-02-19T08:36:00;96629.00;;;8.03;100.00
8717;BME280;4395;48.554;8.820;2023-02-19T08:38:05;96530.66;;;7.67;100.00
8717;BME280;4395;48.554;8.820;2023-02-19T08:40:09;96613.00;;;8.22;100.00
8717;BME280;4395;48.554;8.820;2023-02-19T08:42:12;96607.41;;;8.23;100.00
8717;BME280;4395;48.554;8.820;2023-02-19T08:44:14;96611.09;;;8.04;100.00
8717;BME280;4395;48.554;8.820;2023-02-19T08:46:18;96536.34;;;7.78;100.00
8717;BME280;4395;48.554;8.820;2023-02-19T08:48:21;96496.88;;;7.73;100.00
8717;BME280;4395;48.554;8.820;2023-02-19T08:50:25;96611.41;;;8.39;100.00
8717;BME280;4395;48.554;8.820;2023-02-19T08:52:28;96603.47;;;8.51;100.00
8717;BME280;4395;48.554;8.820;2023-02-19T08:54:30;96606.97;;;8.51;100.00
8717;BME280;4395;48.554;8.820;2023-02-19T08:56:33;96602.72;;;8.44;100.00
8717;BME280;4395;48.554;8.820;2023-02-19T08:58:36;96624.66;;;8.34;100.00
8717;BME280;4395;48.554;8.820;2023-02-19T09:00:39;96618.91;;;8.05;100.00
8717;BME280;4395;48.554;8.820;2023-02-19T09:02:43;96623.44;;;8.05;100.00
8717;BME280;4395;48.554;8.820;2023-02-19T09:04:46;96634.56;;;8.27;100.00
8717;BME280;4395;48.554;8.820;2023-02-19T09:06:49;96549.00;;;7.64;100.00
8717;BME280;4395;48.554;8.820;2023-02-19T09:08:52;96648.25;;;8.19;100.00
8717;BME280;4395;48.554;8.820;2023-02-19T09:10:58;96635.13;;;8.11;100.00
8717;BME280;4395;48.554;8.820;2023-02-19T09:13:01;96644.25;;;8.28;100.00
8717;BME280;4395;48.554;8.820;2023-02-19T09:15:05;96631.34;;;8.18;100.00
8717;BME280;4395;48.554;8.820;2023-02-19T09:17:08;96647.41;;;8.18;100.00
8717;BME280;4395;48.554;8.820;2023-02-19T09:19:12;96640.28;;;8.37;100.00
8717;BME280;4395;48.554;8.820;2023-02-19T09:21:15;96636.28;;;8.46;100.00
8717;BME280;4395;48.554;8.820;2023-02-19T09:23:18;96645.78;;;8.42;100.00
8717;BME280;4395;48.554;8.820;2023-02-19T09:25:21;96647.16;;;8.51;100.00
8717;BME280;4395;48.554;8.820;2023-02-19T09:27:23;96628.53;;;8.38;100.00
8717;BME280;4395;48.554;8.820;2023-02-19T09:29:27;96651.38;;;8.41;100.00
8717;BME280;4395;48.554;8.820;2023-02-19T09:31:30;96598.69;;;8.10;100.00
8717;BME280;4395;48.554;8.820;2023-02-19T09:33:36;96655.63;;;8.48;100.00
8717;BME280;4395;48.554;8.820;2023-02-19T09:35:40;96653.09;;;8.28;100.00
8717;BME280;4395;48.554;8.820;2023-02-19T09:37:43;96658.25;;;8.55;100.00
8717;BME280;4395;48.554;8.820;2023-02-19T09:39:45;96663.88;;;8.22;100.00
8717;BME280;4395;48.554;8.820;2023-02-19T09:41:50;96671.50;;;8.18;100.00
8717;BME280;4395;48.554;8.820;2023-02-19T09:43:55;96663.00;;;8.28;100.00
8717;BME280;4395;48.554;8.820;2023-02-19T09:46:02;96654.41;;;8.19;100.00
8717;BME280;4395;48.554;8.820;2023-02-19T09:48:06;96674.25;;;8.61;100.00
8717;BME280;4395;48.554;8.820;2023-02-19T09:50:15;96620.25;;;8.15;100.00
8717;BME280;4395;48.554;8.820;2023-02-19T09:52:26;96698.47;;;8.73;100.00
8717;BME280;4395;48.554;8.820;2023-02-19T09:54:33;96689.81;;;8.71;100.00
8717;BME280;4395;48.554;8.820;2023-02-19T09:56:38;96684.97;;;8.61;100.00
8717;BME280;4395;48.554;8.820;2023-02-19T09:58:45;96705.97;;;8.64;100.00
8717;BME280;4395;48.554;8.820;2023-02-19T10:00:50;96692.00;;;8.31;100.00
8717;BME280;4395;48.554;8.820;2023-02-19T10:03:01;96712.09;;;8.47;100.00
8717;BME280;4395;48.554;8.820;2023-02-19T10:05:10;96714.13;;;8.51;100.00
8717;BME280;4395;48.554;8.820;2023-02-19T10:07:15;96722.09;;;8.33;100.00
8717;BME280;4395;48.554;8.820;2023-02-19T10:09:22;96718.78;;;8.31;100.00
8717;BME280;4395;48.554;8.820;2023-02-19T10:11:27;96723.81;;;8.52;100.00
8717;BME280;4395;48.554;8.820;2023-02-19T10:13:32;96723.09;;;8.32;100.00
8717;BME280;4395;48.554;8.820;2023-02-19T10:15:38;96739.00;;;8.58;100.00
8717;BME280;4395;48.554;8.820;2023-02-19T10:17:44;96730.59;;;8.23;100.00
8717;BME280;4395;48.554;8.820;2023-02-19T10:19:46;96725.88;;;8.50;100.00
8717;BME280;4395;48.554;8.820;2023-02-19T10:21:49;96729.25;;;8.39;100.00
8717;BME280;4395;48.554;8.820;2023-02-19T10:23:54;96727.09;;;8.54;100.00
8717;BME280;4395;48.554;8.820;2023-02-19T10:26:00;96724.31;;;8.86;100.00
8717;BME280;4395;48.554;8.820;2023-02-19T10:28:05;96716.34;;;8.29;100.00
8717;BME280;4395;48.554;8.820;2023-02-19T10:30:17;96706.75;;;8.47;100.00
8717;BME280;4395;48.554;8.820;2023-02-19T10:32:24;96706.84;;;8.58;100.00
8717;BME280;4395;48.554;8.820;2023-02-19T10:34:27;96706.03;;;8.58;100.00
8717;BME280;4395;48.554;8.820;2023-02-19T10:36:32;96711.44;;;8.51;100.00
8717;BME280;4395;48.554;8.820;2023-02-19T10:38:38;96712.16;;;8.65;100.00
8717;BME280;4395;48.554;8.820;2023-02-19T10:40:42;96711.00;;;8.97;100.00
8717;BME280;4395;48.554;8.820;2023-02-19T10:42:49;96711.66;;;9.11;100.00
8717;BME280;4395;48.554;8.820;2023-02-19T10:44:55;96725.00;;;9.18;100.00
8717;BME280;4395;48.554;8.820;2023-02-19T10:47:02;96721.19;;;9.44;100.00
8717;BME280;4395;48.554;8.820;2023-02-19T10:49:18;96706.25;;;9.66;100.00
8717;BME280;4395;48.554;8.820;2023-02-19T10:51:30;96732.13;;;9.60;100.00
8717;BME280;4395;48.554;8.820;2023-02-19T10:53:42;96734.06;;;9.72;100.00
8717;BME280;4395;48.554;8.820;2023-02-19T10:55:45;96730.22;;;9.49;100.00
8717;BME280;4395;48.554;8.820;2023-02-19T10:57:49;96739.63;;;9.88;100.00
8717;BME280;4395;48.554;8.820;2023-02-19T10:59:54;96739.25;;;10.15;100.00
8717;BME280;4395;48.554;8.820;2023-02-19T11:01:59;96736.81;;;9.65;100.00
8717;BME280;4395;48.554;8.820;2023-02-19T11:04:14;96727.75;;;9.48;100.00
8717;BME280;4395;48.554;8.820;2023-02-19T11:06:19;96733.94;;;9.48;100.00
8717;BME280;4395;48.554;8.820;2023-02-19T11:08:23;96737.13;;;9.57;100.00
8717;BME280;4395;48.554;8.820;2023-02-19T11:10:27;96742.97;;;9.17;100.00
8717;BME280;4395;48.554;8.820;2023-02-19T11:12:32;96726.34;;;9.27;100.00
8717;BME280;4395;48.554;8.820;2023-02-19T11:14:40;96720.00;;;9.40;100.00
8717;BME280;4395;48.554;8.820;2023-02-19T11:16:46;96718.31;;;9.75;100.00
8717;BME280;4395;48.554;8.820;2023-02-19T11:18:53;96728.66;;;9.42;99.43
8717;BME280;4395;48.554;8.820;2023-02-19T11:20:59;96718.28;;;9.45;100.00
8717;BME280;4395;48.554;8.820;2023-02-19T11:23:09;96723.00;;;9.31;99.48